EGTK/OXF METAR and TAF weather

Enter ICAO airport designator
Station Type Date Time Source
EGTK METAR 2019/02/23 16:50 UTC NOAA

EGTK 231650Z 18003KT CAVOK 13/09 Q1032


Station Type Date Time Source
EGTK Decoded METAR 2019/02/23 16:50 UTC NOAA

Station name not available
Feb 23, 2019 - 11:50 AM EST / 2019.02.23 1650 UTC
Wind: from the S (180 degrees) at 3 MPH (3 KT):0
Visibility: greater than 7 mile(s):0
Temperature: 55 F (13 C)
Dew Point: 48 F (9 C)
Relative Humidity: 76%
Pressure (altimeter): 30.47 in. Hg (1032 hPa)
ob: EGTK 231650Z 18003KT CAVOK 13/09 Q1032
cycle: 17

Station Type Date Time Source
EGTK TAF UTC NOAA

Error!


Example: see airport list